createdAt,value
2023-04-22T00:00:55.918Z,58.58
2023-04-22T00:01:59.551Z,58.23
2023-04-22T00:03:03.721Z,58.71
2023-04-22T00:04:07.610Z,57.94
2023-04-22T00:05:14.292Z,58.60
2023-04-22T00:06:20.442Z,58.46
2023-04-22T00:07:23.208Z,58.43
2023-04-22T00:08:25.762Z,58.63
2023-04-22T00:09:28.653Z,59.06
2023-04-22T00:10:30.607Z,58.91
2023-04-22T00:11:33.468Z,58.92
2023-04-22T00:12:35.421Z,58.59
2023-04-22T00:13:38.214Z,58.29
2023-04-22T00:14:40.381Z,58.47
2023-04-22T00:15:43.265Z,57.91
2023-04-22T00:16:45.211Z,58.52
2023-04-22T00:17:48.315Z,58.47
2023-04-22T00:18:50.179Z,58.28
2023-04-22T00:19:53.141Z,58.64
2023-04-22T00:20:55.229Z,58.57
2023-04-22T00:21:59.424Z,58.06
2023-04-22T00:23:01.446Z,59.07
2023-04-22T00:24:04.553Z,58.44
2023-04-22T00:25:07.485Z,58.77
2023-04-22T00:26:10.298Z,58.51
2023-04-22T00:27:14.190Z,59.17
2023-04-22T00:28:17.035Z,58.76
2023-04-22T00:29:18.853Z,58.83
2023-04-22T00:30:21.657Z,59.43
2023-04-22T00:31:23.600Z,59.34
2023-04-22T00:32:26.863Z,59.19
2023-04-22T00:33:28.809Z,58.92
2023-04-22T00:34:31.589Z,58.82
2023-04-22T00:35:33.452Z,58.36
2023-04-22T00:36:36.386Z,58.96
2023-04-22T00:37:39.715Z,59.13
2023-04-22T00:38:47.459Z,58.44
2023-04-22T00:39:49.311Z,59.11
2023-04-22T00:40:52.148Z,58.28
2023-04-22T00:41:55.217Z,58.82
2023-04-22T00:42:59.128Z,59.36
2023-04-22T00:44:01.572Z,58.96
2023-04-22T00:45:04.938Z,59.01
2023-04-22T00:46:06.891Z,58.96
2023-04-22T00:47:10.832Z,58.97
2023-04-22T00:48:13.778Z,58.45
2023-04-22T00:49:17.814Z,58.90
2023-04-22T00:50:19.636Z,59.15
2023-04-22T00:51:22.463Z,59.06
2023-04-22T00:52:24.417Z,59.01
2023-04-22T00:53:28.696Z,58.50
2023-04-22T00:54:31.459Z,59.05
2023-04-22T00:55:34.492Z,58.75
2023-04-22T00:56:38.767Z,58.69
2023-04-22T00:57:42.021Z,58.99
2023-04-22T00:58:44.037Z,59.30
2023-04-22T00:59:47.604Z,58.77
2023-04-22T01:00:49.531Z,59.41
2023-04-22T01:01:53.156Z,59.30
2023-04-22T01:02:55.770Z,59.43
2023-04-22T01:04:00.844Z,59.11
2023-04-22T01:05:03.958Z,59.13
2023-04-22T01:06:07.577Z,58.85
2023-04-22T01:07:09.474Z,58.68
2023-04-22T01:08:13.300Z,58.91
2023-04-22T01:09:19.727Z,58.80
2023-04-22T01:10:22.832Z,59.40
2023-04-22T01:11:27.109Z,59.36
2023-04-22T01:12:29.985Z,59.74
2023-04-22T01:13:32.608Z,59.11
2023-04-22T01:14:36.050Z,58.89
2023-04-22T01:15:38.091Z,58.94
2023-04-22T01:16:43.462Z,59.13
2023-04-22T01:17:45.949Z,59.68
2023-04-22T01:18:48.909Z,59.75
2023-04-22T01:19:52.748Z,59.62
2023-04-22T01:20:56.157Z,58.75
2023-04-22T01:21:59.356Z,59.01
2023-04-22T01:23:04.865Z,58.64
2023-04-22T01:24:08.605Z,59.42
2023-04-22T01:25:12.327Z,58.93
2023-04-22T01:26:14.213Z,59.26
2023-04-22T01:27:17.176Z,59.36
2023-04-22T01:28:19.092Z,59.21
2023-04-22T01:29:22.168Z,58.81
2023-04-22T01:30:24.089Z,59.71
2023-04-22T01:31:27.129Z,59.17
2023-04-22T01:32:30.664Z,59.45
2023-04-22T01:33:34.596Z,58.60
2023-04-22T01:34:36.491Z,58.87
2023-04-22T01:35:39.935Z,59.19
2023-04-22T01:36:41.840Z,58.81
2023-04-22T01:37:44.698Z,58.91
2023-04-22T01:38:46.692Z,59.10
2023-04-22T01:39:51.303Z,59.15
2023-04-22T01:40:53.443Z,59.94
2023-04-22T01:41:56.812Z,59.79
2023-04-22T01:42:59.511Z,60.09
2023-04-22T01:44:04.797Z,59.39
2023-04-22T01:45:07.788Z,59.65
2023-04-22T01:46:11.131Z,59.35
2023-04-22T01:47:13.696Z,59.24
2023-04-22T01:48:16.519Z,60.35
2023-04-22T01:49:18.456Z,60.12
2023-04-22T01:50:21.851Z,59.63
2023-04-22T01:51:24.057Z,59.71
2023-04-22T01:52:28.155Z,60.21
2023-04-22T01:53:30.086Z,59.83
2023-04-22T01:54:33.480Z,60.47
2023-04-22T01:55:38.049Z,60.54
2023-04-22T01:56:43.642Z,59.95
2023-04-22T01:57:45.619Z,60.08
2023-04-22T01:58:48.897Z,59.84
2023-04-22T01:59:50.756Z,59.53
2023-04-22T02:00:53.628Z,60.31
2023-04-22T02:01:55.603Z,60.38
2023-04-22T02:02:58.616Z,60.34
2023-04-22T02:04:00.886Z,59.46
2023-04-22T02:05:06.689Z,59.60
2023-04-22T02:06:08.638Z,60.05
2023-04-22T02:07:12.740Z,59.63
2023-04-22T02:08:14.626Z,59.72
2023-04-22T02:09:19.940Z,59.57
2023-04-22T02:10:21.889Z,60.32
2023-04-22T02:11:26.177Z,59.98
2023-04-22T02:12:28.028Z,60.46
2023-04-22T02:13:36.330Z,59.94
2023-04-22T02:14:38.256Z,60.57
2023-04-22T02:15:41.439Z,60.08
2023-04-22T02:16:43.491Z,59.75
2023-04-22T02:17:46.388Z,59.79
2023-04-22T02:18:48.671Z,59.13
2023-04-22T02:19:51.872Z,59.42
2023-04-22T02:20:53.882Z,59.75
2023-04-22T02:21:56.798Z,59.47
2023-04-22T02:22:58.686Z,59.49
2023-04-22T02:24:01.806Z,59.69
2023-04-22T02:25:04.877Z,59.20
2023-04-22T02:26:08.983Z,59.53
2023-04-22T02:27:12.225Z,59.32
2023-04-22T02:28:15.327Z,58.95
2023-04-22T02:29:17.583Z,59.33
2023-04-22T02:30:20.506Z,59.89
2023-04-22T02:31:22.391Z,59.99
2023-04-22T02:32:25.715Z,58.88
2023-04-22T02:33:28.203Z,58.54
2023-04-22T02:34:31.078Z,58.91
2023-04-22T02:35:32.974Z,58.98
2023-04-22T02:36:35.849Z,58.98
2023-04-22T02:37:38.119Z,59.71
2023-04-22T02:38:40.951Z,59.42
2023-04-22T02:39:43.001Z,59.10
2023-04-22T02:40:45.986Z,59.17
2023-04-22T02:41:47.876Z,59.84
2023-04-22T02:42:52.687Z,60.24
2023-04-22T02:43:54.626Z,59.97
2023-04-22T02:44:57.716Z,59.21
2023-04-22T02:45:59.586Z,59.77
2023-04-22T02:47:03.825Z,59.27
2023-04-22T02:48:05.925Z,59.98
2023-04-22T02:49:08.772Z,59.57
2023-04-22T02:50:11.281Z,60.26
2023-04-22T02:51:14.338Z,60.19
2023-04-22T02:52:16.323Z,60.20
2023-04-22T02:53:19.193Z,59.53
2023-04-22T02:54:21.117Z,59.56
2023-04-22T02:55:24.664Z,59.11
2023-04-22T02:56:27.675Z,59.99
2023-04-22T02:57:30.886Z,60.09
2023-04-22T02:58:34.360Z,59.45
2023-04-22T02:59:38.039Z,59.92
2023-04-22T03:00:40.500Z,59.71
2023-04-22T03:01:43.517Z,59.98
2023-04-22T03:02:51.346Z,59.54
2023-04-22T03:03:58.418Z,59.96
2023-04-22T03:05:01.160Z,59.46
2023-04-22T03:06:06.062Z,59.90
2023-04-22T03:07:08.069Z,59.20
2023-04-22T03:08:11.763Z,59.82
2023-04-22T03:09:15.106Z,59.83
2023-04-22T03:10:18.067Z,59.33
2023-04-22T03:11:20.062Z,59.47
2023-04-22T03:12:24.037Z,59.55
2023-04-22T03:13:25.908Z,59.37
2023-04-22T03:14:30.120Z,60.02
2023-04-22T03:15:31.972Z,59.59
2023-04-22T03:16:34.956Z,59.36
2023-04-22T03:17:39.925Z,60.09
2023-04-22T03:18:46.493Z,60.02
2023-04-22T03:19:48.394Z,59.88
2023-04-22T03:20:51.414Z,59.47
2023-04-22T03:21:53.781Z,59.86
2023-04-22T03:22:57.173Z,59.77
2023-04-22T03:24:01.960Z,59.98
2023-04-22T03:25:09.031Z,59.39
2023-04-22T03:26:12.029Z,59.77
2023-04-22T03:27:15.593Z,60.19
2023-04-22T03:28:17.501Z,60.44
2023-04-22T03:29:20.331Z,60.07
2023-04-22T03:30:23.875Z,60.08
2023-04-22T03:31:26.899Z,59.98
2023-04-22T03:32:28.865Z,59.68
2023-04-22T03:33:58.029Z,59.42
2023-04-22T03:35:04.842Z,59.40
2023-04-22T03:36:08.982Z,59.62
2023-04-22T03:37:11.042Z,59.32
2023-04-22T03:38:13.915Z,60.37
2023-04-22T03:39:15.961Z,59.26
2023-04-22T03:40:20.761Z,60.21
2023-04-22T03:41:26.351Z,59.45
2023-04-22T03:42:29.272Z,60.12
2023-04-22T03:43:32.418Z,59.33
2023-04-22T03:44:40.621Z,59.12
2023-04-22T03:45:44.637Z,59.98
2023-04-22T03:46:54.890Z,59.02
2023-04-22T03:48:00.342Z,59.88
2023-04-22T03:49:12.802Z,59.99
2023-04-22T03:50:14.872Z,59.47
2023-04-22T03:51:18.050Z,59.08
2023-04-22T03:52:19.980Z,59.28
2023-04-22T03:53:31.088Z,59.36
2023-04-22T03:54:32.899Z,59.05
2023-04-22T03:55:36.321Z,59.35
2023-04-22T03:56:38.258Z,60.42
2023-04-22T03:57:41.190Z,60.46
2023-04-22T03:58:44.458Z,60.63
2023-04-22T03:59:47.374Z,60.27
2023-04-22T04:00:51.018Z,60.00
2023-04-22T04:01:55.718Z,59.56
2023-04-22T04:03:01.104Z,59.95
2023-04-22T04:04:04.424Z,59.99
2023-04-22T04:05:13.990Z,59.31
2023-04-22T04:06:17.028Z,60.32
2023-04-22T04:07:19.186Z,59.72
2023-04-22T04:08:22.080Z,59.88
2023-04-22T04:09:24.106Z,59.76
2023-04-22T04:10:28.065Z,59.69
2023-04-22T04:11:31.979Z,59.42
2023-04-22T04:12:35.841Z,59.40
2023-04-22T04:13:37.810Z,59.88
2023-04-22T04:15:01.133Z,59.92
2023-04-22T04:16:06.999Z,58.97
2023-04-22T04:17:15.288Z,59.13
2023-04-22T04:18:17.549Z,59.50
2023-04-22T04:19:22.507Z,59.36
2023-04-22T04:20:24.540Z,59.43
2023-04-22T04:21:27.850Z,59.74
2023-04-22T04:22:30.871Z,59.42
2023-04-22T04:23:36.250Z,59.47
2023-04-22T04:24:41.864Z,59.51
2023-04-22T04:25:51.973Z,59.32
2023-04-22T04:26:53.938Z,59.45
2023-04-22T04:28:03.682Z,59.21
2023-04-22T04:29:06.362Z,59.51
2023-04-22T04:30:11.322Z,59.61
2023-04-22T04:31:21.459Z,59.72
2023-04-22T04:32:25.082Z,59.08
2023-04-22T04:33:28.610Z,59.44
2023-04-22T04:34:34.368Z,59.40
2023-04-22T04:35:38.100Z,58.83
2023-04-22T04:36:42.098Z,59.27
2023-04-22T04:37:53.769Z,59.29
2023-04-22T04:38:56.956Z,59.23
2023-04-22T04:40:00.370Z,58.95
2023-04-22T04:41:12.372Z,59.70
2023-04-22T04:42:14.507Z,59.84
2023-04-22T04:43:27.056Z,60.06
2023-04-22T04:44:36.232Z,59.11
2023-04-22T04:45:40.202Z,59.68
2023-04-22T04:46:46.690Z,59.18
2023-04-22T04:47:50.562Z,59.05
2023-04-22T04:48:58.646Z,59.35
2023-04-22T04:50:04.274Z,58.75
2023-04-22T04:51:07.899Z,59.18
2023-04-22T04:52:14.451Z,59.38
2023-04-22T04:53:17.828Z,58.74
2023-04-22T04:54:21.058Z,59.06
2023-04-22T04:55:23.918Z,59.44
2023-04-22T04:56:26.066Z,59.49
2023-04-22T04:57:30.125Z,58.81
2023-04-22T04:58:32.726Z,59.46
2023-04-22T05:00:05.389Z,59.35
2023-04-22T05:01:07.345Z,59.34
2023-04-22T05:02:11.760Z,58.27
2023-04-22T05:03:13.915Z,58.93
2023-04-22T05:04:17.336Z,58.44
2023-04-22T05:05:19.642Z,58.05
2023-04-22T05:06:23.587Z,58.10
2023-04-22T05:07:30.666Z,57.94
2023-04-22T05:08:33.998Z,57.58
2023-04-22T05:09:41.461Z,57.41
2023-04-22T05:10:45.447Z,57.35
2023-04-22T05:11:48.137Z,57.33
2023-04-22T05:12:54.893Z,57.33
2023-04-22T05:14:00.414Z,56.92
2023-04-22T05:15:09.179Z,57.51
2023-04-22T05:16:12.523Z,57.45
2023-04-22T05:17:16.851Z,57.00
2023-04-22T05:18:19.030Z,56.04
2023-04-22T05:19:22.062Z,56.37
2023-04-22T05:20:26.124Z,56.36
2023-04-22T05:21:29.119Z,56.14
2023-04-22T05:22:31.618Z,55.73
2023-04-22T05:23:34.897Z,55.89
2023-04-22T05:24:37.643Z,55.76
2023-04-22T05:25:40.613Z,56.30
2023-04-22T05:26:45.722Z,55.76
2023-04-22T05:27:54.503Z,55.81
2023-04-22T05:28:58.087Z,55.98
2023-04-22T05:30:01.545Z,55.89
2023-04-22T05:31:06.935Z,56.02
2023-04-22T05:32:09.973Z,56.13
2023-04-22T05:33:13.714Z,55.63
2023-04-22T05:34:16.687Z,55.16
2023-04-22T05:35:18.781Z,55.66
2023-04-22T05:36:21.745Z,55.55
2023-04-22T05:37:23.964Z,55.13
2023-04-22T05:38:27.574Z,55.28
2023-04-22T05:39:31.043Z,54.87
2023-04-22T05:40:35.879Z,55.31
2023-04-22T05:41:40.595Z,55.58
2023-04-22T05:42:44.864Z,55.26
2023-04-22T05:43:47.707Z,55.14
2023-04-22T05:44:53.505Z,55.50
2023-04-22T05:45:55.824Z,55.56
2023-04-22T05:46:58.632Z,55.86
2023-04-22T05:48:02.207Z,55.75
2023-04-22T05:49:09.626Z,55.48
2023-04-22T05:50:50.938Z,55.81
2023-04-22T05:51:53.108Z,55.64
2023-04-22T05:52:59.716Z,55.25
2023-04-22T05:54:03.389Z,55.39
2023-04-22T05:55:07.429Z,55.52
2023-04-22T05:56:09.331Z,55.90
2023-04-22T05:57:12.215Z,55.32
2023-04-22T05:58:14.110Z,55.46
2023-04-22T05:59:26.461Z,55.30
2023-04-22T06:00:28.606Z,55.15
2023-04-22T06:01:47.054Z,54.68
2023-04-22T06:02:53.530Z,54.75
2023-04-22T06:03:57.396Z,54.67
2023-04-22T06:05:02.013Z,54.41
2023-04-22T06:06:06.231Z,54.48
2023-04-22T06:07:08.182Z,53.95
2023-04-22T06:08:11.899Z,53.51
2023-04-22T06:09:14.032Z,53.91
2023-04-22T06:10:18.268Z,53.69
2023-04-22T06:11:20.328Z,53.53
2023-04-22T06:12:23.411Z,53.44
2023-04-22T06:13:25.645Z,53.55
2023-04-22T06:14:28.584Z,53.78
2023-04-22T06:15:30.618Z,53.32
2023-04-22T06:16:35.425Z,53.69
2023-04-22T06:17:39.593Z,53.76
2023-04-22T06:18:43.451Z,53.60
2023-04-22T06:19:46.983Z,53.78
2023-04-22T06:20:52.207Z,53.72
2023-04-22T06:21:54.095Z,53.59
2023-04-22T06:22:59.355Z,53.55
2023-04-22T06:24:01.425Z,53.65
2023-04-22T06:25:04.974Z,53.77
2023-04-22T06:26:06.935Z,53.78
2023-04-22T06:27:11.409Z,53.45
2023-04-22T06:28:13.579Z,53.36
2023-04-22T06:29:16.475Z,52.96
2023-04-22T06:30:18.336Z,53.45
2023-04-22T06:31:27.404Z,53.49
2023-04-22T06:32:30.295Z,53.23
2023-04-22T06:33:32.328Z,53.31
2023-04-22T06:34:35.320Z,53.42
2023-04-22T06:35:37.300Z,53.12
2023-04-22T06:36:42.217Z,53.18
2023-04-22T06:37:44.283Z,53.09
2023-04-22T06:38:48.132Z,52.99
2023-04-22T06:40:10.226Z,53.21
2023-04-22T06:41:32.491Z,53.42
2023-04-22T06:42:40.403Z,52.69
2023-04-22T06:44:12.548Z,52.64
2023-04-22T06:45:17.378Z,52.53
2023-04-22T06:46:38.181Z,52.29
2023-04-22T06:48:01.301Z,52.53
2023-04-22T06:49:18.052Z,52.82
2023-04-22T06:50:39.914Z,52.57
2023-04-22T06:51:43.489Z,52.70
2023-04-22T06:52:46.402Z,52.67
2023-04-22T06:53:48.717Z,52.95
2023-04-22T06:54:52.258Z,52.55
2023-04-22T06:55:54.679Z,52.67
2023-04-22T06:56:57.518Z,52.95
2023-04-22T06:57:59.392Z,52.64
2023-04-22T06:59:02.564Z,52.75
2023-04-22T07:00:08.436Z,52.21
2023-04-22T07:01:13.664Z,52.29
2023-04-22T07:02:16.970Z,52.24
2023-04-22T07:03:20.627Z,52.40
2023-04-22T07:04:33.100Z,52.50
2023-04-22T07:05:37.858Z,52.49
2023-04-22T07:06:42.806Z,52.53
2023-04-22T07:07:47.484Z,52.94
2023-04-22T07:08:54.183Z,52.78
2023-04-22T07:09:57.330Z,52.71
2023-04-22T07:11:02.632Z,52.16
2023-04-22T07:12:25.536Z,52.02
2023-04-22T07:13:27.481Z,51.90
2023-04-22T07:14:30.829Z,52.35
2023-04-22T07:15:32.771Z,51.86
2023-04-22T07:16:35.626Z,51.56
2023-04-22T07:17:37.486Z,52.07
2023-04-22T07:18:40.373Z,52.26
2023-04-22T07:19:42.388Z,52.45
2023-04-22T07:20:45.267Z,52.03
2023-04-22T07:21:47.330Z,52.24
2023-04-22T07:22:52.328Z,52.06
2023-04-22T07:23:55.168Z,52.12
2023-04-22T07:24:57.018Z,52.51
2023-04-22T07:25:59.927Z,52.43
2023-04-22T07:27:02.375Z,52.43
2023-04-22T07:28:05.197Z,52.54
2023-04-22T07:29:07.343Z,52.55
2023-04-22T07:30:12.920Z,52.28
2023-04-22T07:31:14.755Z,52.17
2023-04-22T07:32:17.558Z,51.26
2023-04-22T07:33:19.332Z,50.58
2023-04-22T07:34:22.177Z,50.88
2023-04-22T07:35:25.093Z,50.81
2023-04-22T07:36:26.965Z,51.15
2023-04-22T07:37:29.814Z,51.51
2023-04-22T07:38:33.044Z,51.22
2023-04-22T07:39:35.891Z,50.80
2023-04-22T07:40:38.687Z,50.40
2023-04-22T07:41:40.542Z,50.95
2023-04-22T07:42:43.424Z,51.29
2023-04-22T07:43:45.470Z,50.69
2023-04-22T07:44:48.252Z,50.88
2023-04-22T07:45:50.465Z,50.71
2023-04-22T07:46:54.028Z,51.11
2023-04-22T07:47:56.010Z,51.16
2023-04-22T07:48:58.874Z,50.99
2023-04-22T07:50:00.910Z,51.31
2023-04-22T07:51:03.911Z,50.40
2023-04-22T07:52:05.769Z,50.00
2023-04-22T07:53:10.707Z,50.15
2023-04-22T07:54:13.979Z,50.61
2023-04-22T07:55:16.934Z,50.60
2023-04-22T07:56:18.805Z,50.56
2023-04-22T07:57:22.555Z,51.28
2023-04-22T07:58:24.422Z,50.79
2023-04-22T07:59:27.315Z,50.95
2023-04-22T08:00:29.502Z,51.05
2023-04-22T08:01:32.406Z,49.64
2023-04-22T08:02:34.373Z,50.43
2023-04-22T08:03:37.359Z,49.86
2023-04-22T08:04:39.849Z,49.65
2023-04-22T08:05:43.215Z,49.79
2023-04-22T08:06:45.076Z,49.21
2023-04-22T08:07:47.916Z,50.15
2023-04-22T08:08:49.736Z,50.21
2023-04-22T08:09:55.932Z,50.38
2023-04-22T08:10:57.816Z,50.17
2023-04-22T08:12:01.332Z,50.51
2023-04-22T08:13:03.250Z,49.81
2023-04-22T08:14:06.089Z,50.30
2023-04-22T08:15:08.705Z,50.36
2023-04-22T08:16:12.562Z,50.17
2023-04-22T08:17:15.236Z,51.07
2023-04-22T08:18:18.076Z,50.84
2023-04-22T08:19:20.849Z,50.19
2023-04-22T08:20:23.767Z,50.25
2023-04-22T08:21:27.364Z,49.62
2023-04-22T08:22:30.215Z,50.03
2023-04-22T08:23:32.493Z,50.27
2023-04-22T08:24:35.448Z,49.92
2023-04-22T08:25:39.694Z,49.17
2023-04-22T08:26:42.099Z,48.63
2023-04-22T08:27:45.012Z,49.34
2023-04-22T08:28:47.156Z,48.83
2023-04-22T08:29:50.318Z,49.21
2023-04-22T08:30:52.266Z,48.75
2023-04-22T08:31:55.066Z,48.81
2023-04-22T08:32:56.951Z,48.84
2023-04-22T08:33:59.777Z,48.05
2023-04-22T08:35:04.730Z,48.15
2023-04-22T08:36:08.869Z,47.97
2023-04-22T08:37:10.736Z,48.78
2023-04-22T08:38:13.555Z,49.34
2023-04-22T08:39:16.175Z,49.17
2023-04-22T08:40:19.058Z,49.66
2023-04-22T08:41:24.465Z,49.48
2023-04-22T08:42:28.220Z,48.09
2023-04-22T08:43:30.649Z,47.66
2023-04-22T08:44:35.322Z,45.95
2023-04-22T08:45:39.595Z,46.58
2023-04-22T08:46:46.715Z,46.96
2023-04-22T08:47:51.112Z,46.38
2023-04-22T08:48:54.394Z,47.42
2023-04-22T08:49:57.408Z,47.17
2023-04-22T08:51:00.326Z,45.42
2023-04-22T08:52:03.474Z,45.90
2023-04-22T08:53:05.454Z,45.73
2023-04-22T08:54:08.448Z,46.21
2023-04-22T08:55:10.316Z,46.99
2023-04-22T08:56:14.449Z,44.36
2023-04-22T08:57:18.787Z,44.57
2023-04-22T08:58:22.080Z,44.44
2023-04-22T08:59:23.985Z,46.27
2023-04-22T09:00:27.055Z,45.81
2023-04-22T09:01:31.639Z,46.95
2023-04-22T09:02:34.944Z,45.21
2023-04-22T09:03:40.806Z,44.51
2023-04-22T09:04:43.336Z,44.87
2023-04-22T09:05:47.866Z,45.71
2023-04-22T09:06:50.012Z,44.71
2023-04-22T09:07:53.665Z,44.20
2023-04-22T09:08:56.244Z,43.92
2023-04-22T09:10:00.022Z,42.91
2023-04-22T09:11:03.564Z,41.85
2023-04-22T09:12:06.564Z,41.67
2023-04-22T09:13:11.772Z,42.00
2023-04-22T09:14:13.713Z,40.05
2023-04-22T09:15:16.681Z,40.40
2023-04-22T09:16:18.635Z,39.98
2023-04-22T09:17:32.469Z,39.37
2023-04-22T09:18:42.701Z,39.06
2023-04-22T09:19:44.624Z,39.68
2023-04-22T09:20:48.916Z,40.47
2023-04-22T09:21:53.609Z,40.27
2023-04-22T09:22:58.707Z,40.05
2023-04-22T09:24:02.413Z,39.98
2023-04-22T09:25:05.720Z,40.43
2023-04-22T09:26:08.457Z,41.22
2023-04-22T09:27:12.294Z,42.23
2023-04-22T09:28:19.404Z,41.91
2023-04-22T09:29:22.346Z,41.12
2023-04-22T09:30:26.141Z,42.24
2023-04-22T09:31:29.471Z,41.96
2023-04-22T09:32:31.409Z,42.28
2023-04-22T09:33:34.315Z,40.75
2023-04-22T09:34:46.541Z,39.99
2023-04-22T09:35:49.421Z,40.45
2023-04-22T09:36:52.065Z,41.71
2023-04-22T09:37:55.088Z,42.17
2023-04-22T09:39:00.002Z,41.02
2023-04-22T09:40:01.966Z,39.89
2023-04-22T09:41:10.535Z,39.51
2023-04-22T09:42:12.493Z,40.45
2023-04-22T09:43:20.760Z,39.68
2023-04-22T09:44:22.687Z,40.14
2023-04-22T09:45:33.889Z,39.71
2023-04-22T09:46:35.875Z,38.62
2023-04-22T09:47:38.857Z,38.64
2023-04-22T09:48:43.055Z,39.80
2023-04-22T09:49:47.892Z,39.81
2023-04-22T09:50:51.074Z,40.18
2023-04-22T09:51:57.855Z,40.77
2023-04-22T09:53:02.065Z,39.92
2023-04-22T09:54:09.846Z,40.24
2023-04-22T09:55:11.767Z,40.28
2023-04-22T09:56:14.834Z,40.75
2023-04-22T09:57:17.224Z,39.96
2023-04-22T09:58:23.853Z,39.77
2023-04-22T09:59:28.210Z,39.28
2023-04-22T10:00:31.811Z,39.22
2023-04-22T10:01:36.202Z,39.65
2023-04-22T10:02:39.417Z,38.61
2023-04-22T10:03:41.545Z,39.50
2023-04-22T10:04:44.385Z,39.10
2023-04-22T10:05:47.599Z,40.13
2023-04-22T10:06:50.054Z,39.97
2023-04-22T10:07:53.582Z,39.57
2023-04-22T10:08:55.609Z,39.57
2023-04-22T10:09:58.747Z,39.50
2023-04-22T10:11:00.727Z,38.82
2023-04-22T10:12:03.781Z,38.79
2023-04-22T10:13:06.515Z,38.00
2023-04-22T10:14:13.836Z,38.82
2023-04-22T10:15:15.845Z,40.49
2023-04-22T10:16:20.939Z,40.86
2023-04-22T10:17:23.017Z,40.47
2023-04-22T10:18:27.896Z,40.29
2023-04-22T10:19:32.909Z,40.45
2023-04-22T10:20:36.661Z,42.07
2023-04-22T10:21:42.322Z,41.30
2023-04-22T10:22:44.749Z,41.00
2023-04-22T10:23:48.833Z,40.38
2023-04-22T10:24:55.302Z,41.82
2023-04-22T10:25:58.706Z,42.21
2023-04-22T10:27:06.534Z,41.34
2023-04-22T10:28:12.096Z,40.04
2023-04-22T10:29:17.549Z,39.99
2023-04-22T10:30:28.609Z,40.03
2023-04-22T10:31:30.976Z,40.97
2023-04-22T10:32:33.935Z,40.57
2023-04-22T10:33:36.701Z,38.97
2023-04-22T10:34:39.966Z,40.30
2023-04-22T10:36:08.930Z,41.43
2023-04-22T10:37:13.220Z,40.52
2023-04-22T10:38:16.284Z,41.51
2023-04-22T10:39:19.249Z,41.14
2023-04-22T10:40:23.631Z,40.62
2023-04-22T10:41:26.495Z,40.85
2023-04-22T10:42:30.009Z,39.83
2023-04-22T10:43:42.684Z,40.99
2023-04-22T10:44:54.309Z,42.25
2023-04-22T10:45:56.614Z,42.55
2023-04-22T10:47:00.966Z,44.09
2023-04-22T10:48:05.177Z,45.56
2023-04-22T10:49:07.728Z,44.94
2023-04-22T10:50:12.811Z,45.86
2023-04-22T10:51:39.566Z,44.83
2023-04-22T10:52:43.917Z,45.15
2023-04-22T10:53:46.415Z,45.77
2023-04-22T10:55:00.602Z,43.56
2023-04-22T10:56:03.578Z,44.15
2023-04-22T10:57:07.059Z,43.20
2023-04-22T10:58:20.458Z,43.26
2023-04-22T10:59:22.371Z,44.42
2023-04-22T11:00:52.525Z,44.29
2023-04-22T11:01:55.791Z,43.25
2023-04-22T11:03:13.988Z,41.85
2023-04-22T11:04:23.556Z,43.51
2023-04-22T11:05:28.384Z,44.31
2023-04-22T11:06:31.298Z,42.54
2023-04-22T11:07:35.610Z,42.52
2023-04-22T11:08:38.488Z,42.57
2023-04-22T11:09:40.932Z,44.01
2023-04-22T11:10:45.751Z,42.29
2023-04-22T11:11:48.014Z,40.26
2023-04-22T11:12:51.056Z,41.86
2023-04-22T11:13:54.981Z,40.96
2023-04-22T11:14:57.312Z,41.31
2023-04-22T11:16:01.994Z,41.90
2023-04-22T11:17:03.855Z,42.75
2023-04-22T11:18:11.848Z,41.90
2023-04-22T11:19:14.715Z,41.41
2023-04-22T11:20:17.465Z,41.77
2023-04-22T11:21:22.363Z,41.43
2023-04-22T11:22:24.606Z,42.34
2023-04-22T11:23:29.747Z,42.07
2023-04-22T11:24:31.646Z,41.58
2023-04-22T11:25:34.661Z,42.39
2023-04-22T11:26:37.590Z,38.93
2023-04-22T11:27:43.473Z,38.93
2023-04-22T11:28:47.455Z,39.76
2023-04-22T11:30:00.374Z,39.63
2023-04-22T11:31:06.586Z,42.00
2023-04-22T11:32:11.299Z,41.75
2023-04-22T11:33:16.496Z,39.99
2023-04-22T11:34:18.570Z,39.32
2023-04-22T11:35:23.002Z,41.34
2023-04-22T11:36:25.882Z,40.38
2023-04-22T11:37:29.363Z,42.02
2023-04-22T11:38:33.132Z,43.04
2023-04-22T11:39:36.150Z,44.50
2023-04-22T11:40:42.791Z,43.57
2023-04-22T11:41:46.837Z,41.51
2023-04-22T11:42:50.841Z,41.12
2023-04-22T11:43:54.868Z,38.81
2023-04-22T11:44:56.872Z,41.54
2023-04-22T11:46:00.359Z,43.44
2023-04-22T11:47:03.579Z,43.57
2023-04-22T11:48:08.039Z,43.66
2023-04-22T11:49:14.017Z,42.86
2023-04-22T11:50:16.996Z,42.00
2023-04-22T11:51:19.934Z,41.62
2023-04-22T11:52:21.818Z,40.88
2023-04-22T11:53:24.745Z,42.19
2023-04-22T11:54:31.834Z,43.27
2023-04-22T11:55:36.468Z,43.75
2023-04-22T11:56:38.309Z,43.77
2023-04-22T11:57:41.635Z,44.42
2023-04-22T11:58:44.528Z,41.87
2023-04-22T11:59:57.380Z,44.16
2023-04-22T12:01:00.667Z,41.60
2023-04-22T12:02:07.057Z,42.01
2023-04-22T12:03:15.731Z,41.78
2023-04-22T12:04:18.426Z,42.44
2023-04-22T12:05:21.287Z,43.86
2023-04-22T12:06:24.196Z,44.24
2023-04-22T12:07:27.000Z,43.85
2023-04-22T12:08:33.200Z,42.41
2023-04-22T12:09:35.121Z,41.93
2023-04-22T12:10:42.692Z,42.94
2023-04-22T12:11:45.487Z,43.10
2023-04-22T12:12:49.895Z,44.00
2023-04-22T12:13:54.205Z,43.43
2023-04-22T12:14:58.102Z,40.13
2023-04-22T12:16:02.660Z,40.85
2023-04-22T12:17:09.366Z,41.51
2023-04-22T12:18:13.230Z,42.07
2023-04-22T12:19:15.048Z,41.95
2023-04-22T12:20:17.869Z,42.06
2023-04-22T12:21:23.639Z,41.97
2023-04-22T12:22:26.363Z,40.46
2023-04-22T12:23:29.483Z,40.16
2023-04-22T12:24:31.422Z,39.18
2023-04-22T12:25:34.873Z,40.39
2023-04-22T12:26:37.895Z,40.08
2023-04-22T12:27:40.724Z,39.96
2023-04-22T12:28:43.704Z,41.44
2023-04-22T12:29:53.749Z,40.71
2023-04-22T12:30:56.644Z,40.72
2023-04-22T12:31:58.543Z,40.31
2023-04-22T12:33:02.777Z,39.78
2023-04-22T12:34:04.821Z,40.29
2023-04-22T12:35:08.618Z,38.94
2023-04-22T12:36:10.661Z,39.67
2023-04-22T12:37:13.599Z,40.14
2023-04-22T12:38:16.438Z,39.84
2023-04-22T12:39:18.941Z,39.41
2023-04-22T12:40:22.075Z,38.87
2023-04-22T12:41:23.974Z,37.77
2023-04-22T12:42:26.772Z,38.21
2023-04-22T12:43:29.625Z,38.88
2023-04-22T12:44:31.479Z,38.31
2023-04-22T12:45:34.494Z,38.68
2023-04-22T12:46:36.665Z,37.35
2023-04-22T12:47:39.742Z,37.85
2023-04-22T12:48:43.159Z,37.53
2023-04-22T12:49:47.434Z,38.23
2023-04-22T12:50:50.386Z,36.57
2023-04-22T12:51:52.423Z,37.27
2023-04-22T12:52:55.317Z,36.25
2023-04-22T12:53:57.138Z,37.00
2023-04-22T12:54:59.966Z,35.60
2023-04-22T12:56:03.102Z,35.92
2023-04-22T12:57:04.963Z,35.91
2023-04-22T12:58:07.802Z,35.66
2023-04-22T12:59:09.684Z,34.76
2023-04-22T13:00:14.431Z,35.65
2023-04-22T13:01:36.374Z,36.31
2023-04-22T13:02:39.330Z,35.91
2023-04-22T13:03:53.223Z,35.16
2023-04-22T13:04:56.569Z,34.52
2023-04-22T13:05:59.749Z,34.25
2023-04-22T13:07:02.689Z,35.09
2023-04-22T13:08:07.530Z,35.94
2023-04-22T13:09:11.063Z,34.94
2023-04-22T13:10:15.950Z,34.73
2023-04-22T13:11:17.785Z,35.61
2023-04-22T13:12:20.684Z,34.88
2023-04-22T13:13:23.489Z,35.47
2023-04-22T13:14:26.096Z,34.63
2023-04-22T13:15:30.097Z,34.16
2023-04-22T13:16:32.067Z,35.04
2023-04-22T13:17:35.117Z,34.68
2023-04-22T13:18:37.078Z,35.40
2023-04-22T13:19:41.545Z,35.41
2023-04-22T13:20:43.646Z,35.47
2023-04-22T13:21:46.609Z,35.71
2023-04-22T13:22:48.548Z,35.94
2023-04-22T13:23:51.353Z,37.29
2023-04-22T13:24:54.150Z,36.78
2023-04-22T13:25:57.858Z,35.47
2023-04-22T13:27:00.195Z,35.14
2023-04-22T13:28:03.030Z,35.76
2023-04-22T13:29:10.931Z,35.65
2023-04-22T13:30:14.837Z,36.93
2023-04-22T13:31:17.018Z,36.21
2023-04-22T13:32:20.050Z,36.85
2023-04-22T13:33:22.458Z,37.63
2023-04-22T13:34:25.564Z,36.93
2023-04-22T13:35:28.756Z,35.58
2023-04-22T13:36:31.819Z,36.16
2023-04-22T13:37:33.682Z,35.47
2023-04-22T13:38:37.023Z,34.64
2023-04-22T13:39:40.259Z,34.13
2023-04-22T13:40:42.199Z,35.32
2023-04-22T13:41:45.093Z,34.10
2023-04-22T13:42:46.984Z,33.58
2023-04-22T13:43:54.183Z,34.41
2023-04-22T13:44:55.988Z,34.74
2023-04-22T13:45:58.954Z,34.71
2023-04-22T13:47:02.757Z,35.02